ADDS METAR Data INFO
IDs: Format: Raw Decoded Include TAF

Data at: 1246 UTC 19 Oct 2017

KPNT 191235Z AUTO 25004KT 10SM CLR 10/10 A3014 RMK AO2 T00980095
KPNT 191215Z AUTO 24004KT 10SM CLR 10/10 A3013 RMK AO2 T01030097
KPNT 191155Z AUTO 23003KT 10SM CLR 11/10 A3013 RMK AO2 T01070097 10134 20102
KPNT 191135Z AUTO 27003KT 10SM CLR 11/10 A3013 RMK AO2 T01070098
KPNT 191115Z AUTO 00000KT 10SM CLR 11/10 A3012 RMK AO2 T01130100
KPNT 191055Z AUTO 23004KT 10SM CLR 12/10 A3012 RMK AO2 T01170101
KPNT 191035Z AUTO 23007KT 10SM CLR 12/10 A3010 RMK AO2 T01210102
KPNT 191015Z AUTO 23006KT 10SM CLR 13/10 A3010 RMK AO2 T01250101
KPNT 190955Z AUTO 22006KT 10SM CLR 13/10 A3010 RMK AO2 T01260101
KPNT 190935Z AUTO 23008KT 10SM CLR 13/10 A3009 RMK AO2 T01300101
KPNT 190915Z AUTO 23008KT 10SM CLR 13/10 A3009 RMK AO2 T01290102
KPNT 190855Z AUTO 22007KT 10SM CLR 13/10 A3008 RMK AO2 T01260103
KPNT 190835Z AUTO 22007KT 10SM CLR 13/10 A3008 RMK AO2 T01280102
KPNT 190815Z AUTO 22008KT 10SM CLR 13/10 A3009 RMK AO2 T01290102
KPNT 190755Z AUTO 21008KT 10SM CLR 13/10 A3008 RMK AO2 T01300101
KPNT 190735Z AUTO 21008KT 10SM CLR 13/10 A3008 RMK AO2 T01310101
KPNT 190715Z AUTO 21008KT 10SM CLR 13/10 A3008 RMK AO2 T01330100
KPNT 190655Z AUTO 21008KT 10SM CLR 13/10 A3008 RMK AO2 T01310100
KPNT 190635Z AUTO 21007KT 10SM CLR 13/10 A3008 RMK AO2 T01320100
KPNT 190615Z AUTO 20007KT 10SM CLR 13/10 A3008 RMK AO2 T01300100
KPNT 190555Z AUTO 20006KT 10SM CLR 13/10 A3009 RMK AO2 T01300097 10175 20130 402270062
KPNT 190535Z AUTO 20007KT 10SM CLR 13/10 A3009 RMK AO2 T01320096
KPNT 190515Z AUTO 20007KT 10SM CLR 13/10 A3009 RMK AO2 T01310095
KPNT 190455Z AUTO 20007KT 10SM CLR 14/10 A3010 RMK AO2 T01380095
KPNT 190435Z AUTO 20008KT 10SM CLR 14/09 A3010 RMK AO2 T01390093
KPNT 190415Z AUTO 20007KT 10SM CLR 14/09 A3010 RMK AO2 T01350091
KPNT 190355Z AUTO 20007KT 10SM CLR 14/09 A3010 RMK AO2 T01360090
KPNT 190335Z AUTO 19008KT 10SM CLR 13/09 A3010 RMK AO2 T01320087
KPNT 190315Z AUTO 20006KT 10SM CLR 14/09 A3010 RMK AO2 T01400085
KPNT 190255Z AUTO 20009KT 10SM CLR 14/08 A3010 RMK AO2 T01430081
KPNT 190235Z AUTO 19010KT 10SM CLR 14/08 A3009 RMK AO2 T01420078
KPNT 190215Z AUTO 17007KT 10SM CLR 14/08 A3008 RMK AO2 T01360075
KPNT 190155Z AUTO 17008KT 10SM CLR 13/08 A3007 RMK AO2 T01310075
KPNT 190135Z AUTO 18008KT 10SM CLR 15/07 A3008 RMK AO2 T01530071
KPNT 190115Z AUTO 19007KT 10SM CLR 15/07 A3009 RMK AO2 T01540070
KPNT 190055Z AUTO 19007KT 10SM CLR 16/07 A3009 RMK AO2 T01560070
KPNT 190035Z AUTO 19008KT 10SM CLR 16/07 A3009 RMK AO2 T01640070
KPNT 190015Z AUTO 19010KT 10SM CLR 17/07 A3008 RMK AO2 T01730066
KPNT 182355Z AUTO 19009KT 10SM CLR 18/07 A3007 RMK AO2 T01750068 10227 20175
KPNT 182335Z AUTO 19009KT 10SM CLR 18/07 A3007 RMK AO2 T01750068
KPNT 182315Z AUTO 19009KT 10SM CLR 19/07 A3007 RMK AO2 T01860066
KPNT 182255Z AUTO 19011KT 10SM CLR 20/06 A3007 RMK AO2 T01960061
KPNT 182235Z AUTO 19011G18KT 10SM CLR 21/05 A3006 RMK AO2 T02060054
KPNT 182215Z AUTO 18013KT 10SM CLR 21/05 A3006 RMK AO2 T02120054
KPNT 182155Z AUTO 19013KT 10SM CLR 22/05 A3006 RMK AO2 T02170049
KPNT 182135Z AUTO 19016KT 10SM CLR 22/05 A3006 RMK AO2 T02210050
KPNT 182115Z AUTO 18016G20KT 10SM CLR 22/05 A3006 RMK AO2 T02240051
KPNT 182055Z AUTO 18017G21KT 10SM CLR 23/05 A3007 RMK AO2 T02250048
KPNT 182035Z AUTO 20012G21KT 10SM CLR 23/05 A3008 RMK AO2 T02250046
KPNT 182015Z AUTO 18015G20KT 10SM CLR 23/05 A3008 RMK AO2 T02250053
KPNT 181955Z AUTO 20012G19KT 10SM CLR 22/05 A3009 RMK AO2 T02220053
KPNT 181935Z AUTO 19016G22KT 10SM CLR 23/06 A3009 RMK AO2 T02260056
KPNT 181915Z AUTO 20016G22KT 10SM CLR 22/05 A3010 RMK AO2 T02220049
KPNT 181855Z AUTO 19014G21KT 10SM CLR 22/05 A3010 RMK AO2 T02200049
KPNT 181835Z AUTO 19017G20KT 10SM CLR 22/05 A3012 RMK AO2 T02150052
KPNT 181815Z AUTO 19018G22KT 10SM CLR 21/05 A3012 RMK AO2 T02130054
KPNT 181755Z AUTO 19016G21KT 10SM CLR 21/06 A3013 RMK AO2 T02110058 10213 20070
KPNT 181735Z AUTO 20016G20KT 10SM CLR 21/06 A3014 RMK AO2 T02080056
KPNT 181715Z AUTO 20015G18KT 10SM CLR 20/06 A3015 RMK AO2 T02030057
KPNT 181655Z AUTO 19015G18KT 10SM CLR 20/06 A3016 RMK AO2 T02000060
KPNT 181635Z AUTO 19014G20KT 10SM CLR 20/07 A3017 RMK AO2 T01950065
KPNT 181615Z AUTO 19012G20KT 10SM CLR 19/07 A3017 RMK AO2 T01870065
KPNT 181555Z AUTO 21014KT 10SM CLR 18/07 A3017 RMK AO2 T01800065
KPNT 181535Z AUTO 20012KT 10SM CLR 17/07 A3018 RMK AO2 T01720067
KPNT 181515Z AUTO 20013G17KT 10SM CLR 17/07 A3019 RMK AO2 T01650068
KPNT 181455Z AUTO 20011G15KT 10SM CLR 16/07 A3019 RMK AO2 T01560070
KPNT 181435Z AUTO 19010KT 10SM CLR 14/08 A3019 RMK AO2 T01430075
KPNT 181415Z AUTO 19009KT 10SM CLR 13/08 A3019 RMK AO2 T01300075
KPNT 181355Z AUTO 19010KT 10SM CLR 12/07 A3019 RMK AO2 T01180071
KPNT 181335Z AUTO 19011G15KT 10SM CLR 11/07 A3019 RMK AO2 T01110070
KPNT 181315Z AUTO 19008KT 10SM CLR 10/07 A3019 RMK AO2 T01020071
KPNT 181255Z AUTO 17005KT 10SM CLR 08/07 A3019 RMK AO2 T00800069
KPNT 181235Z AUTO 16006KT 10SM CLR 07/07 A3019 RMK AO2 T00710065
KPNT 181215Z AUTO 16007KT 10SM CLR 07/06 A3019 RMK AO2 T00720063
KPNT 181155Z AUTO 17007KT 10SM CLR 08/07 A3019 RMK AO2 T00800066 10100 20062
KPNT 181135Z AUTO 17006KT 10SM CLR 08/07 A3019 RMK AO2 T00800066
KPNT 181115Z AUTO 17006KT 10SM CLR 08/07 A3019 RMK AO2 T00750065
KPNT 181055Z AUTO 17005KT 10SM CLR 07/06 A3019 RMK AO2 T00700063
KPNT 181035Z AUTO 16005KT 10SM CLR 08/07 A3019 RMK AO2 T00750065
KPNT 181015Z AUTO 17005KT 10SM CLR 08/07 A3019 RMK AO2 T00750065
KPNT 180955Z AUTO 18006KT 10SM CLR 08/07 A3018 RMK AO2 T00800066
KPNT 180935Z AUTO 17005KT 10SM CLR 07/06 A3018 RMK AO2 T00660061
KPNT 180915Z AUTO 17004KT 10SM CLR 08/06 A3018 RMK AO2 T00750063
KPNT 180855Z AUTO 18006KT 10SM CLR 07/06 A3018 RMK AO2 T00720063
KPNT 180835Z AUTO 17005KT 10SM CLR 07/06 A3017 RMK AO2 T00700060
KPNT 180815Z AUTO 17006KT 10SM CLR 07/06 A3017 RMK AO2 T00730061
KPNT 180755Z AUTO 17006KT 10SM CLR 08/06 A3018 RMK AO2 T00780061
KPNT 180735Z AUTO 18005KT 10SM CLR 09/06 A3018 RMK AO2 T00890061
KPNT 180715Z AUTO 19006KT 10SM CLR 10/06 A3018 RMK AO2 T00950062
KPNT 180655Z AUTO 19006KT 10SM CLR 09/06 A3018 RMK AO2 T00940061
KPNT 180635Z AUTO 18005KT 10SM CLR 08/06 A3018 RMK AO2 T00840060
KPNT 180615Z AUTO 17006KT 10SM CLR 09/06 A3018 RMK AO2 T00890058
KPNT 180555Z AUTO 18006KT 10SM CLR 10/06 A3018 RMK AO2 T00990059 10157 20090 402150086
KPNT 180535Z AUTO 17006KT 10SM CLR 09/06 A3018 RMK AO2 T00930059
KPNT 180515Z AUTO 19007KT 10SM CLR 11/06 A3018 RMK AO2 T01070058
KPNT 180455Z AUTO 18007KT 10SM CLR 10/06 A3018 RMK AO2 T01020058
KPNT 180435Z AUTO 19007KT 10SM CLR 10/06 A3018 RMK AO2 T01000058
KPNT 180415Z AUTO 18006KT 10SM CLR 10/06 A3019 RMK AO2 T01000058
KPNT 180355Z AUTO 18007KT 10SM CLR 11/06 A3019 RMK AO2 T01090057
KPNT 180335Z AUTO 19006KT 10SM CLR 11/06 A3019 RMK AO2 T01110059
KPNT 180315Z AUTO 19007KT 10SM CLR 12/06 A3019 RMK AO2 T01190060
KPNT 180255Z AUTO 19008KT 10SM CLR 12/06 A3019 RMK AO2 T01180060
KPNT 180235Z AUTO 19008KT 10SM CLR 12/06 A3019 RMK AO2 T01210057
KPNT 180215Z AUTO 19009KT 10SM CLR 13/06 A3019 RMK AO2 T01260057
KPNT 180155Z AUTO 18008KT 10SM CLR 13/06 A3019 RMK AO2 T01280056
KPNT 180135Z AUTO 18007KT 10SM CLR 13/06 A3019 RMK AO2 T01300056
KPNT 180115Z AUTO 18009KT 10SM CLR 14/06 A3019 RMK AO2 T01390055
KPNT 180055Z AUTO 18006KT 10SM CLR 14/06 A3019 RMK AO2 T01360055